Time;durP1;ratioP1;P1;durP2;ratioP2;P2;SDS_P1;SDS_P2;PMS_P1;PMS_P2;Temp;Humidity;BMP_temperature;BMP_pressure;BME280_temperature;BME280_humidity;BME280_pressure;Samples;Min_cycle;Max_cycle;Signal;HPM_P1;HPM_P2
2021/05/17 00:00:30;;;;;;;1.48;0.50;;;10.20;99.90;;;;;;5042396;28;20029;-69
2021/05/17 00:02:58;;;;;;;1.55;0.20;;;10.20;99.90;;;;;;5037981;28;20041;-69
2021/05/17 00:05:24;;;;;;;1.88;0.25;;;10.20;99.90;;;;;;5038806;28;20394;-70
2021/05/17 00:07:49;;;;;;;1.00;0.17;;;10.20;99.90;;;;;;5040797;28;20055;-69
2021/05/17 00:10:16;;;;;;;1.85;0.30;;;10.20;99.90;;;;;;5037197;28;20384;-70
2021/05/17 00:12:42;;;;;;;0.20;0.20;;;10.20;99.90;;;;;;5043620;28;20140;-70
2021/05/17 00:15:12;;;;;;;1.38;0.20;;;10.20;99.90;;;;;;5039721;28;20108;-70
2021/05/17 00:17:39;;;;;;;;;;;10.20;99.90;;;;;;5039008;28;20040;-67
2021/05/17 00:20:11;;;;;;;0.20;0.03;;;10.20;99.90;;;;;;5045387;28;20030;-70
2021/05/17 00:22:37;;;;;;;0.28;0.10;;;10.10;99.90;;;;;;5043818;28;20052;-69
2021/05/17 00:25:03;;;;;;;0.82;0.20;;;10.10;99.90;;;;;;5039575;28;20475;-69
2021/05/17 00:27:29;;;;;;;2.45;0.20;;;10.20;99.90;;;;;;5036030;28;20037;-69
2021/05/17 00:29:56;;;;;;;0.88;0.13;;;10.20;99.90;;;;;;5032221;28;20048;-70
2021/05/17 00:32:22;;;;;;;0.00;0.00;;;10.20;99.90;;;;;;5039093;28;20116;-68
2021/05/17 00:34:48;;;;;;;0.75;0.20;;;10.30;99.90;;;;;;5038946;28;20123;-69
2021/05/17 00:37:14;;;;;;;2.00;0.10;;;10.30;99.90;;;;;;5037106;28;20033;-69
2021/05/17 00:39:41;;;;;;;0.65;0.10;;;10.20;99.90;;;;;;5039164;28;20033;-70
2021/05/17 00:42:08;;;;;;;1.65;0.10;;;10.20;99.90;;;;;;5039211;28;20406;-69
2021/05/17 00:44:38;;;;;;;0.32;0.20;;;10.30;99.90;;;;;;5036316;28;20026;-69
2021/05/17 00:47:08;;;;;;;0.20;0.00;;;10.30;99.90;;;;;;5039542;28;20036;-70
2021/05/17 00:49:34;;;;;;;0.40;0.00;;;10.30;99.90;;;;;;5039805;28;20072;-69
2021/05/17 00:52:00;;;;;;;0.50;0.20;;;10.30;99.90;;;;;;5036746;28;20052;-68
2021/05/17 00:54:26;;;;;;;1.00;0.17;;;10.40;99.90;;;;;;5039333;28;20036;-70
2021/05/17 00:56:51;;;;;;;1.05;0.30;;;10.40;99.90;;;;;;5038055;28;20557;-67
2021/05/17 00:59:17;;;;;;;0.20;0.00;;;10.30;99.90;;;;;;5033739;28;20044;-70
2021/05/17 01:01:43;;;;;;;1.65;0.10;;;10.30;99.90;;;;;;5034697;28;20076;-69
2021/05/17 01:04:08;;;;;;;0.60;0.20;;;10.30;99.90;;;;;;5037600;28;20033;-68
2021/05/17 01:06:34;;;;;;;1.10;0.22;;;10.30;99.90;;;;;;5036524;28;20123;-70
2021/05/17 01:09:07;;;;;;;1.85;0.20;;;10.30;99.90;;;;;;5038408;28;20033;-70
2021/05/17 01:11:34;;;;;;;0.65;0.17;;;10.30;99.90;;;;;;5036481;28;20057;-69
2021/05/17 01:14:03;;;;;;;0.80;0.30;;;10.30;99.90;;;;;;5038132;28;20037;-70
2021/05/17 01:16:30;;;;;;;0.43;0.20;;;10.30;99.90;;;;;;5039716;28;20727;-68
2021/05/17 01:18:56;;;;;;;0.82;0.28;;;10.30;99.90;;;;;;5033194;28;20394;-69
2021/05/17 01:21:25;;;;;;;1.83;0.50;;;10.30;99.90;;;;;;5036290;28;20033;-68
2021/05/17 01:23:55;;;;;;;2.55;0.50;;;10.30;99.90;;;;;;5035544;28;20037;-70
2021/05/17 01:26:23;;;;;;;1.77;0.50;;;10.30;99.90;;;;;;5037034;28;20041;-70
2021/05/17 01:28:49;;;;;;;4.38;0.55;;;10.30;99.90;;;;;;5038622;28;20131;-68
2021/05/17 01:31:15;;;;;;;3.40;0.50;;;10.30;99.90;;;;;;5038100;28;20148;-66
2021/05/17 01:33:43;;;;;;;1.92;0.63;;;10.30;99.90;;;;;;5042075;28;20034;-67
2021/05/17 01:36:11;;;;;;;2.45;0.73;;;10.30;99.90;;;;;;5038148;28;20036;-70
2021/05/17 01:38:41;;;;;;;1.33;0.70;;;10.30;99.90;;;;;;5034153;28;20029;-70
2021/05/17 01:41:12;;;;;;;1.93;0.87;;;10.30;99.90;;;;;;5036291;28;20048;-69
2021/05/17 01:43:58;;;;;;;2.05;1.08;;;10.30;99.90;;;;;;5036419;28;20028;-70
2021/05/17 01:46:32;;;;;;;3.72;1.00;;;10.30;99.90;;;;;;5038370;28;20034;-70
2021/05/17 01:48:59;;;;;;;3.63;0.95;;;10.30;99.90;;;;;;5038881;28;20036;-69
2021/05/17 01:51:25;;;;;;;5.63;1.33;;;10.30;99.90;;;;;;5035978;28;20029;-70
2021/05/17 01:53:52;;;;;;;3.58;1.17;;;10.40;99.90;;;;;;5036668;28;20095;-68
2021/05/17 01:56:19;;;;;;;5.50;1.23;;;10.40;99.90;;;;;;5037680;28;20517;-69
2021/05/17 01:58:45;;;;;;;4.53;1.50;;;10.40;99.90;;;;;;5032070;28;20140;-69
2021/05/17 02:01:13;;;;;;;2.85;1.38;;;10.40;99.90;;;;;;5034143;28;20017;-68
2021/05/17 02:03:41;;;;;;;2.92;1.63;;;10.40;99.90;;;;;;5038202;28;20039;-70
2021/05/17 02:06:07;;;;;;;3.40;1.75;;;10.40;99.90;;;;;;5037724;28;20029;-69
2021/05/17 02:08:37;;;;;;;3.45;1.73;;;10.40;99.90;;;;;;5034072;28;20573;-70
2021/05/17 02:11:02;;;;;;;2.88;1.75;;;10.40;99.90;;;;;;5033873;28;20116;-69
2021/05/17 02:13:28;;;;;;;3.58;1.83;;;10.40;99.90;;;;;;5034652;28;20856;-69
2021/05/17 02:15:55;;;;;;;2.78;1.50;;;10.40;99.90;;;;;;5040660;28;20078;-70
2021/05/17 02:18:21;;;;;;;4.10;1.90;;;10.40;99.90;;;;;;5035343;28;20065;-69
2021/05/17 02:20:47;;;;;;;2.58;1.73;;;10.40;99.90;;;;;;5036015;28;20053;-70
2021/05/17 02:23:15;;;;;;;5.68;2.15;;;10.40;99.90;;;;;;5034765;28;20030;-70
2021/05/17 02:25:51;;;;;;;5.32;2.38;;;10.30;99.90;;;;;;5033693;28;20722;-69
2021/05/17 02:28:18;;;;;;;4.35;2.20;;;10.40;99.90;;;;;;5035642;28;20075;-69
2021/05/17 02:30:44;;;;;;;3.55;2.00;;;10.40;99.90;;;;;;5034169;28;20040;-69
2021/05/17 02:33:11;;;;;;;5.70;2.20;;;10.40;99.90;;;;;;5035387;28;20117;-69
2021/05/17 02:35:37;;;;;;;4.90;2.30;;;10.40;99.90;;;;;;5036779;28;20036;-68
2021/05/17 02:38:04;;;;;;;3.75;2.40;;;10.40;99.90;;;;;;5035785;28;20037;-69
2021/05/17 02:40:30;;;;;;;5.75;2.33;;;10.40;99.90;;;;;;5037733;28;20025;-69
2021/05/17 02:43:15;;;;;;;6.45;2.50;;;10.40;99.90;;;;;;5041403;28;20029;-72
2021/05/17 02:45:41;;;;;;;4.15;2.10;;;10.40;99.90;;;;;;5038218;28;20441;-67
2021/05/17 02:48:08;;;;;;;4.00;2.63;;;10.40;99.90;;;;;;5040937;28;20066;-70
2021/05/17 02:50:36;;;;;;;5.13;2.75;;;10.30;99.90;;;;;;5040970;28;20034;-70
2021/05/17 02:53:22;;;;;;;5.38;2.63;;;10.30;99.90;;;;;;5037919;28;20029;-69
2021/05/17 02:55:53;;;;;;;5.80;2.80;;;10.30;99.90;;;;;;5037506;28;20029;-69
2021/05/17 02:58:21;;;;;;;5.40;3.15;;;10.30;99.90;;;;;;5039138;28;20530;-68
2021/05/17 03:00:52;;;;;;;5.45;3.17;;;10.30;99.90;;;;;;5040851;28;20156;-69
2021/05/17 03:03:21;;;;;;;7.43;3.03;;;10.30;99.90;;;;;;5038233;28;20132;-69
2021/05/17 03:06:04;;;;;;;5.90;2.80;;;10.30;99.90;;;;;;5039003;28;20029;-68
2021/05/17 03:08:36;;;;;;;10.75;3.15;;;10.30;99.90;;;;;;5034870;28;20025;-69
2021/05/17 03:11:02;;;;;;;4.28;2.67;;;10.30;99.90;;;;;;5041678;28;20033;-68
2021/05/17 03:13:29;;;;;;;6.07;3.20;;;10.30;99.90;;;;;;5033237;28;20140;-66
2021/05/17 03:15:54;;;;;;;7.78;2.80;;;10.30;99.90;;;;;;5039417;28;20040;-69
2021/05/17 03:18:20;;;;;;;4.45;2.90;;;10.30;99.90;;;;;;5040189;28;20041;-68
2021/05/17 03:20:46;;;;;;;8.02;3.25;;;10.30;99.90;;;;;;5036097;28;20109;-69
2021/05/17 03:23:16;;;;;;;6.18;2.92;;;10.30;99.90;;;;;;5038919;28;20059;-69
2021/05/17 03:25:46;;;;;;;7.93;3.63;;;10.30;99.90;;;;;;5038914;28;20045;-69
2021/05/17 03:28:11;;;;;;;9.50;3.70;;;10.30;99.90;;;;;;5040801;28;20033;-69
2021/05/17 03:30:37;;;;;;;6.97;3.58;;;10.30;99.90;;;;;;5037362;28;20037;-68
2021/05/17 03:33:03;;;;;;;9.15;3.53;;;10.30;99.90;;;;;;5040372;28;20041;-66
2021/05/17 03:35:28;;;;;;;7.35;3.40;;;10.30;99.90;;;;;;5035360;28;20029;-69
2021/05/17 03:37:55;;;;;;;4.82;3.17;;;10.30;99.90;;;;;;5036801;28;20102;-68
2021/05/17 03:40:21;;;;;;;6.07;2.90;;;10.40;99.90;;;;;;5041211;28;20819;-69
2021/05/17 03:42:46;;;;;;;7.32;3.05;;;10.30;99.90;;;;;;5037364;28;20030;-68
2021/05/17 03:45:13;;;;;;;4.47;2.88;;;10.30;99.90;;;;;;5039125;28;20036;-68
2021/05/17 03:47:39;;;;;;;6.90;3.10;;;10.30;99.90;;;;;;5040014;28;20417;-69
2021/05/17 03:50:07;;;;;;;5.72;3.00;;;10.40;99.90;;;;;;5042672;28;20029;-69
2021/05/17 03:52:33;;;;;;;4.50;2.67;;;10.30;99.90;;;;;;5039174;28;20033;-68
2021/05/17 03:54:59;;;;;;;4.03;2.38;;;10.30;99.90;;;;;;5040558;28;20506;-69
2021/05/17 03:57:25;;;;;;;10.20;3.13;;;10.40;99.90;;;;;;5037423;28;20025;-69
2021/05/17 03:59:51;;;;;;;6.45;2.38;;;10.40;99.90;;;;;;5036512;28;20038;-68
2021/05/17 04:02:19;;;;;;;4.85;2.67;;;10.40;99.90;;;;;;5040680;28;20044;-68
2021/05/17 04:04:56;;;;;;;8.98;2.80;;;10.40;99.90;;;;;;5038727;28;20395;-69
2021/05/17 04:07:57;;;;;;;4.95;2.63;;;10.40;99.90;;;;;;5039279;28;20040;-69
2021/05/17 04:15:42;;;;;;;7.22;2.40;;;10.40;99.90;;;;;;5036736;28;20086;-69
2021/05/17 04:18:08;;;;;;;5.57;2.72;;;10.50;99.90;;;;;;5043115;28;20040;-70
2021/05/17 04:20:34;;;;;;;5.20;2.40;;;10.50;99.90;;;;;;5043591;28;20033;-70
2021/05/17 04:22:59;;;;;;;5.47;2.15;;;10.60;99.90;;;;;;5041194;28;20143;-70
2021/05/17 04:25:25;;;;;;;4.43;2.15;;;10.60;99.90;;;;;;5039102;28;20131;-70
2021/05/17 04:27:51;;;;;;;4.78;2.60;;;10.60;99.90;;;;;;5036643;28;20068;-70
2021/05/17 04:30:16;;;;;;;6.43;2.20;;;10.60;99.90;;;;;;5035416;28;20394;-71
2021/05/17 04:32:42;;;;;;;7.43;2.95;;;10.60;99.90;;;;;;5037228;28;20030;-72
2021/05/17 04:35:08;;;;;;;12.18;3.10;;;10.50;99.90;;;;;;5038282;28;20331;-72
2021/05/17 04:37:34;;;;;;;6.38;2.97;;;10.50;99.90;;;;;;5035747;28;20505;-71
2021/05/17 04:39:59;;;;;;;7.75;3.10;;;10.50;99.90;;;;;;5033742;28;20163;-72
2021/05/17 04:42:25;;;;;;;5.95;3.35;;;10.50;99.90;;;;;;5034444;28;20486;-72
2021/05/17 04:44:51;;;;;;;5.63;3.33;;;10.50;99.90;;;;;;5034065;28;20120;-72
2021/05/17 04:47:16;;;;;;;6.68;3.67;;;10.40;99.90;;;;;;5038795;28;20140;-71
2021/05/17 04:49:42;;;;;;;8.02;3.60;;;10.40;99.90;;;;;;5035176;28;20025;-71
2021/05/17 04:52:07;;;;;;;7.93;3.80;;;10.40;99.90;;;;;;5037422;28;20033;-71
2021/05/17 04:54:33;;;;;;;11.57;4.10;;;10.40;99.90;;;;;;5037446;28;20033;-71
2021/05/17 04:56:58;;;;;;;6.13;3.70;;;10.40;99.90;;;;;;5040670;28;20487;-71
2021/05/17 04:59:24;;;;;;;8.63;3.72;;;10.40;99.90;;;;;;5038459;28;20067;-71
2021/05/17 05:01:49;;;;;;;10.45;4.28;;;10.40;99.90;;;;;;5031394;28;20029;-71
2021/05/17 05:04:15;;;;;;;11.27;4.88;;;10.50;99.90;;;;;;5036134;28;20110;-71
2021/05/17 05:06:41;;;;;;;13.02;4.32;;;10.50;99.90;;;;;;5030994;28;20120;-70
2021/05/17 05:09:06;;;;;;;6.93;3.55;;;10.50;99.90;;;;;;5036878;28;20087;-71
2021/05/17 05:11:32;;;;;;;8.57;3.67;;;10.60;99.90;;;;;;5041293;28;20095;-71
2021/05/17 05:13:57;;;;;;;6.88;3.92;;;10.60;99.90;;;;;;5038393;28;20025;-71
2021/05/17 05:16:23;;;;;;;6.20;3.03;;;10.60;99.90;;;;;;5040529;28;20037;-71
2021/05/17 05:18:48;;;;;;;9.82;4.03;;;10.60;99.90;;;;;;5037840;28;20037;-71
2021/05/17 05:21:14;;;;;;;7.97;3.17;;;10.60;99.90;;;;;;5035831;28;20105;-71
2021/05/17 05:23:40;;;;;;;19.95;4.72;;;10.70;99.90;;;;;;5036399;28;20033;-70
2021/05/17 05:31:43;;;;;;;8.20;3.72;;;10.70;99.90;;;;;;5044793;28;20059;-71
2021/05/17 05:34:09;;;;;;;12.75;4.50;;;10.80;99.90;;;;;;5045833;28;20115;-71
2021/05/17 05:36:35;;;;;;;5.85;3.30;;;10.80;99.90;;;;;;5039385;28;20041;-71
2021/05/17 05:39:02;;;;;;;9.82;3.35;;;10.90;99.90;;;;;;5036931;28;20124;-72
2021/05/17 05:41:28;;;;;;;10.70;3.53;;;10.90;99.90;;;;;;5040988;28;20394;-71
2021/05/17 05:43:54;;;;;;;12.77;3.95;;;10.90;99.90;;;;;;5036648;28;20123;-71
2021/05/17 05:46:21;;;;;;;6.40;2.85;;;10.90;99.90;;;;;;5036148;28;20132;-71
2021/05/17 05:48:47;;;;;;;8.70;3.88;;;11.00;99.90;;;;;;5039953;28;20494;-70
2021/05/17 05:51:25;;;;;;;11.02;3.60;;;11.00;99.90;;;;;;5043209;28;20045;-71
2021/05/17 05:53:52;;;;;;;10.73;3.70;;;10.90;99.90;;;;;;5042501;28;20034;-71
2021/05/17 05:56:18;;;;;;;9.43;3.85;;;11.00;99.90;;;;;;5039719;28;20094;-71
2021/05/17 05:58:45;;;;;;;10.70;4.03;;;11.00;99.90;;;;;;5037025;28;20102;-71
2021/05/17 06:01:12;;;;;;;8.60;3.58;;;11.00;99.90;;;;;;5035940;28;20099;-71
2021/05/17 06:03:38;;;;;;;7.60;3.70;;;11.00;99.90;;;;;;5037458;28;20065;-71
2021/05/17 06:06:05;;;;;;;9.00;3.53;;;11.00;99.90;;;;;;5037610;28;20045;-71
2021/05/17 06:08:33;;;;;;;9.43;3.67;;;11.00;99.90;;;;;;5034374;28;20414;-71
2021/05/17 06:10:59;;;;;;;13.35;3.85;;;11.10;99.90;;;;;;5034642;28;20091;-71
2021/05/17 06:13:25;;;;;;;7.78;3.70;;;11.10;99.90;;;;;;5038719;28;20044;-71
2021/05/17 06:15:51;;;;;;;9.20;2.97;;;11.10;99.90;;;;;;5038398;28;20059;-71
2021/05/17 06:18:17;;;;;;;10.13;3.45;;;11.10;99.90;;;;;;5035621;28;20041;-72
2021/05/17 06:20:43;;;;;;;9.05;3.35;;;11.10;99.90;;;;;;5041578;28;20125;-71
2021/05/17 06:23:11;;;;;;;8.43;3.72;;;11.10;99.90;;;;;;5038528;28;20037;-71
2021/05/17 06:25:37;;;;;;;7.70;3.58;;;11.10;99.90;;;;;;5040435;28;20033;-71
2021/05/17 06:28:04;;;;;;;6.85;3.47;;;11.20;99.90;;;;;;5040775;28;20417;-71
2021/05/17 06:30:31;;;;;;;9.38;4.13;;;11.20;99.90;;;;;;5041776;28;20086;-71
2021/05/17 06:32:57;;;;;;;6.47;3.17;;;11.30;99.90;;;;;;5042447;28;20029;-71
2021/05/17 06:35:28;;;;;;;7.35;4.10;;;11.40;99.90;;;;;;5043314;28;20592;-71
2021/05/17 06:37:54;;;;;;;13.75;4.10;;;11.40;99.90;;;;;;5040341;28;20486;-71
2021/05/17 06:40:21;;;;;;;10.20;4.15;;;11.50;99.90;;;;;;5038916;28;20049;-71
2021/05/17 06:42:48;;;;;;;14.23;4.35;;;11.60;99.90;;;;;;5041605;28;20421;-71
2021/05/17 06:45:14;;;;;;;10.52;4.43;;;11.60;99.90;;;;;;5040968;28;20043;-72
2021/05/17 06:47:41;;;;;;;8.30;4.28;;;11.70;99.90;;;;;;5041865;28;20068;-73
2021/05/17 06:50:08;;;;;;;9.75;5.13;;;12.00;99.90;;;;;;5041399;28;20029;-72
2021/05/17 06:52:34;;;;;;;11.93;3.72;;;12.10;99.90;;;;;;5044395;28;20033;-72
2021/05/17 06:55:03;;;;;;;7.57;4.00;;;12.30;99.90;;;;;;5044164;28;20494;-72
2021/05/17 06:57:47;;;;;;;14.90;3.78;;;12.50;99.90;;;;;;5040184;28;20045;-72
2021/05/17 07:00:18;;;;;;;8.57;3.75;;;12.50;99.90;;;;;;5048470;28;20060;-72
2021/05/17 07:02:45;;;;;;;14.27;4.05;;;12.40;99.90;;;;;;5043954;28;20045;-72
2021/05/17 07:05:13;;;;;;;10.35;3.70;;;12.20;99.90;;;;;;5040649;28;20297;-73
2021/05/17 07:07:52;;;;;;;11.55;3.53;;;12.10;99.90;;;;;;5048800;28;20067;-71
2021/05/17 07:13:07;;;;;;;11.77;4.35;;;11.70;99.90;;;;;;5029581;28;20047;-72
2021/05/17 07:15:32;;;;;;;9.00;3.67;;;11.60;99.90;;;;;;5043267;28;20127;-72
2021/05/17 07:17:58;;;;;;;7.95;3.65;;;11.60;99.90;;;;;;5039790;28;20121;-72
2021/05/17 07:23:37;;;;;;;7.45;3.90;;;11.50;99.90;;;;;;5042179;28;20760;-72
2021/05/17 07:26:03;;;;;;;15.00;4.00;;;11.40;99.90;;;;;;5041107;28;20094;-72
2021/05/17 07:28:29;;;;;;;8.57;4.07;;;11.30;99.90;;;;;;5039529;28;20295;-72
2021/05/17 07:30:56;;;;;;;6.53;3.90;;;11.30;99.90;;;;;;5042404;28;20162;-72
2021/05/17 07:33:21;;;;;;;14.25;3.95;;;11.30;99.90;;;;;;5039293;28;20037;-72
2021/05/17 07:35:47;;;;;;;11.68;3.95;;;11.40;99.90;;;;;;5042726;28;20536;-72
2021/05/17 07:38:13;;;;;;;8.40;3.50;;;11.40;99.90;;;;;;5041468;28;20026;-72
2021/05/17 07:40:39;;;;;;;12.05;3.97;;;11.30;99.90;;;;;;5039626;28;20029;-71
2021/05/17 07:43:05;;;;;;;17.08;4.47;;;11.30;99.90;;;;;;5039444;28;20063;-72
2021/05/17 07:45:31;;;;;;;12.30;4.00;;;11.30;99.90;;;;;;5039512;28;20037;-72
2021/05/17 07:47:57;;;;;;;10.60;4.05;;;11.30;99.90;;;;;;5041405;28;20028;-72
2021/05/17 07:50:23;;;;;;;14.38;4.43;;;11.30;99.90;;;;;;5039022;28;20033;-72
2021/05/17 07:52:49;;;;;;;14.20;3.90;;;11.30;99.90;;;;;;5041662;28;20036;-72
2021/05/17 07:55:20;;;;;;;8.30;3.88;;;11.40;99.90;;;;;;5042211;28;20702;-72
2021/05/17 07:57:46;;;;;;;10.15;4.18;;;11.40;99.90;;;;;;5039702;28;20490;-72
2021/05/17 08:00:13;;;;;;;7.55;3.70;;;11.40;99.90;;;;;;5037866;28;20044;-72
2021/05/17 08:02:38;;;;;;;9.80;3.85;;;11.50;99.90;;;;;;5040380;28;20042;-71
2021/05/17 08:05:05;;;;;;;10.85;4.00;;;11.40;99.90;;;;;;5037498;28;20037;-72
2021/05/17 08:07:32;;;;;;;13.82;3.63;;;11.50;99.90;;;;;;5041715;28;20037;-71
2021/05/17 08:09:57;;;;;;;8.25;3.90;;;11.50;99.90;;;;;;5040353;28;20044;-71
2021/05/17 08:12:23;;;;;;;7.38;3.88;;;11.60;99.90;;;;;;5038521;28;20736;-71
2021/05/17 08:14:49;;;;;;;7.03;4.05;;;11.70;99.90;;;;;;5037997;28;20696;-71
2021/05/17 08:17:14;;;;;;;7.35;4.13;;;11.80;99.90;;;;;;5037307;28;20145;-71
2021/05/17 08:19:40;;;;;;;5.07;3.75;;;11.90;99.90;;;;;;5041481;28;20470;-71
2021/05/17 08:22:06;;;;;;;8.27;3.58;;;11.90;99.90;;;;;;5034077;28;20637;-71
2021/05/17 08:24:31;;;;;;;7.03;4.00;;;12.10;99.90;;;;;;5038777;28;20485;-71
2021/05/17 08:26:57;;;;;;;7.72;3.70;;;12.20;99.90;;;;;;5042264;28;20040;-71
2021/05/17 08:29:24;;;;;;;10.20;3.55;;;12.20;99.90;;;;;;5038657;28;20037;-72
2021/05/17 08:31:51;;;;;;;10.23;2.80;;;12.30;99.90;;;;;;5037351;28;20083;-72
2021/05/17 08:34:17;;;;;;;4.43;2.90;;;12.40;99.90;;;;;;5039578;28;20557;-72
2021/05/17 08:36:43;;;;;;;5.05;3.58;;;12.50;99.90;;;;;;5038499;28;20056;-71
2021/05/17 08:39:10;;;;;;;4.95;3.15;;;12.60;99.90;;;;;;5034633;28;20063;-71
2021/05/17 08:41:37;;;;;;;3.90;2.00;;;13.10;99.90;;;;;;5035293;28;20140;-72
2021/05/17 08:44:04;;;;;;;8.20;3.00;;;13.70;99.90;;;;;;5035947;28;21646;-71
2021/05/17 08:46:29;;;;;;;7.85;2.67;;;14.10;99.90;;;;;;5037454;28;20045;-71
2021/05/17 08:48:55;;;;;;;5.40;1.80;;;14.70;99.90;;;;;;5034760;28;20557;-71
2021/05/17 08:51:27;;;;;;;4.35;1.33;;;15.10;99.90;;;;;;5039016;28;20041;-72
2021/05/17 08:53:56;;;;;;;3.55;1.58;;;15.50;99.90;;;;;;5035900;28;20140;-71
2021/05/17 08:56:22;;;;;;;5.40;1.60;;;15.90;99.90;;;;;;5033319;28;20098;-72
2021/05/17 08:58:48;;;;;;;2.65;1.10;;;16.20;99.90;;;;;;5035870;28;20045;-70
2021/05/17 09:01:14;;;;;;;3.55;1.13;;;16.10;99.90;;;;;;5040040;28;20112;-71
2021/05/17 09:03:40;;;;;;;2.08;1.10;;;16.50;99.90;;;;;;5039094;28;20692;-71
2021/05/17 09:06:10;;;;;;;2.63;1.13;;;16.70;99.90;;;;;;5035725;28;20111;-71
2021/05/17 09:08:42;;;;;;;2.90;1.20;;;16.50;99.90;;;;;;5035484;28;20024;-72
2021/05/17 09:11:09;;;;;;;2.70;1.00;;;16.10;99.90;;;;;;5032440;28;20032;-71
2021/05/17 09:13:35;;;;;;;3.75;1.45;;;15.80;99.90;;;;;;5034961;28;20021;-71
2021/05/17 09:16:01;;;;;;;4.45;1.48;;;15.60;99.90;;;;;;5037366;28;20030;-71
2021/05/17 09:18:29;;;;;;;5.68;1.65;;;15.50;99.90;;;;;;5039286;28;20045;-73
2021/05/17 09:20:59;;;;;;;2.28;1.30;;;15.50;99.90;;;;;;5036358;28;20025;-72
2021/05/17 09:23:30;;;;;;;3.38;1.52;;;15.50;99.90;;;;;;5039819;28;20029;-71
2021/05/17 09:26:01;;;;;;;4.70;1.85;;;15.80;99.90;;;;;;5034581;28;20029;-71
2021/05/17 09:28:32;;;;;;;2.92;1.35;;;15.80;99.90;;;;;;5037297;28;20069;-72
2021/05/17 09:31:05;;;;;;;3.60;1.55;;;15.70;99.90;;;;;;5036035;28;20036;-71
2021/05/17 09:33:40;;;;;;;3.28;1.45;;;15.40;99.90;;;;;;5036165;28;20128;-71
2021/05/17 09:36:06;;;;;;;3.03;1.98;;;15.20;99.90;;;;;;5037963;28;20061;-72
2021/05/17 09:38:32;;;;;;;3.80;1.60;;;15.00;99.90;;;;;;5038703;28;20038;-71
2021/05/17 09:41:04;;;;;;;3.15;1.30;;;15.20;99.90;;;;;;5033446;28;20086;-70
2021/05/17 09:43:30;;;;;;;5.25;1.38;;;15.70;99.90;;;;;;5040482;28;20055;-71
2021/05/17 09:45:56;;;;;;;2.00;0.98;;;16.40;99.90;;;;;;5037991;28;20025;-71
2021/05/17 09:48:24;;;;;;;3.58;1.30;;;16.90;99.90;;;;;;5042077;28;20043;-73
2021/05/17 09:51:02;;;;;;;2.22;1.08;;;17.30;99.90;;;;;;5044615;28;20030;-72
2021/05/17 09:53:40;;;;;;;2.00;0.90;;;17.20;99.90;;;;;;5043129;28;20123;-72
2021/05/17 09:56:19;;;;;;;2.63;0.93;;;17.20;99.90;;;;;;5040185;28;20041;-72
2021/05/17 09:58:47;;;;;;;3.58;1.20;;;16.70;99.90;;;;;;5032700;28;20037;-72
2021/05/17 10:01:27;;;;;;;4.05;1.15;;;16.30;99.90;;;;;;5041195;28;20022;-72
2021/05/17 10:03:54;;;;;;;3.30;1.40;;;15.90;99.90;;;;;;5042366;28;20036;-72
2021/05/17 10:06:23;;;;;;;3.30;1.63;;;15.60;99.90;;;;;;5040643;28;20163;-73
2021/05/17 10:08:49;;;;;;;4.03;1.73;;;15.50;99.90;;;;;;5036931;28;20033;-72
2021/05/17 10:11:16;;;;;;;3.25;1.70;;;15.30;99.90;;;;;;5044068;28;20029;-72
2021/05/17 10:13:43;;;;;;;3.30;1.52;;;15.10;99.90;;;;;;5040721;28;20109;-72
2021/05/17 10:16:11;;;;;;;3.75;1.77;;;15.00;99.90;;;;;;5041422;28;20931;-73
2021/05/17 10:18:38;;;;;;;3.35;1.38;;;14.90;99.90;;;;;;5043528;28;20033;-70
2021/05/17 10:21:06;;;;;;;3.97;1.85;;;14.90;99.90;;;;;;5044644;28;20033;-72
2021/05/17 10:23:32;;;;;;;2.60;1.50;;;14.80;99.90;;;;;;5047218;28;20032;-70
2021/05/17 10:26:12;;;;;;;4.28;1.35;;;14.80;99.90;;;;;;5044971;28;20029;-70
2021/05/17 10:28:46;;;;;;;2.22;0.88;;;14.80;99.90;;;;;;5045618;28;20048;-70
2021/05/17 10:31:15;;;;;;;0.73;0.35;;;14.70;99.90;;;;;;5047076;28;20526;-69
2021/05/17 10:33:55;;;;;;;0.40;0.30;;;14.40;99.90;;;;;;5046733;28;20048;-68
2021/05/17 10:36:41;;;;;;;;;;;14.10;99.90;;;;;;5041496;28;20040;-71
2021/05/17 10:39:12;;;;;;;1.30;0.30;;;13.80;99.90;;;;;;5040909;28;19927;-71
2021/05/17 10:41:57;;;;;;;0.80;0.40;;;13.50;99.90;;;;;;5045894;28;20032;-70
2021/05/17 10:46:52;;;;;;;1.40;0.63;;;13.00;99.90;;;;;;5045763;28;20068;-70
2021/05/17 10:49:35;;;;;;;1.77;0.90;;;12.80;99.90;;;;;;5043593;28;20033;-70
2021/05/17 10:52:04;;;;;;;4.18;1.17;;;12.70;99.90;;;;;;5047213;28;20037;-70
2021/05/17 10:54:32;;;;;;;6.78;1.80;;;12.60;99.90;;;;;;5045911;28;20033;-69
2021/05/17 10:57:01;;;;;;;3.03;1.40;;;12.50;99.90;;;;;;5037910;28;20044;-72
2021/05/17 11:02:17;;;;;;;1.65;1.27;;;12.70;99.90;;;;;;5045148;28;20778;-70
2021/05/17 11:04:48;;;;;;;2.00;1.20;;;12.80;99.90;;;;;;5044583;28;20033;-71
2021/05/17 11:07:23;;;;;;;3.40;1.75;;;12.80;99.90;;;;;;5042396;28;20044;-71
2021/05/17 11:09:54;;;;;;;5.85;1.58;;;12.90;99.90;;;;;;5041619;28;20463;-70
2021/05/17 11:12:26;;;;;;;3.28;1.60;;;12.90;99.90;;;;;;5040858;28;20045;-69
2021/05/17 11:15:03;;;;;;;6.78;1.65;;;13.00;99.90;;;;;;5041595;28;20102;-69
2021/05/17 11:17:29;;;;;;;3.03;1.58;;;13.00;99.90;;;;;;5043832;28;20497;-69
2021/05/17 11:19:56;;;;;;;3.08;1.33;;;13.00;99.90;;;;;;5040968;28;20112;-69
2021/05/17 11:22:51;;;;;;;4.50;1.67;;;13.00;99.90;;;;;;5045895;28;20116;-69
2021/05/17 11:25:17;;;;;;;3.92;1.35;;;13.00;99.90;;;;;;5042286;28;20037;-70
2021/05/17 11:27:47;;;;;;;3.67;1.45;;;13.00;99.90;;;;;;5044643;28;20090;-69
2021/05/17 11:30:39;;;;;;;2.97;1.40;;;12.90;99.90;;;;;;5039715;28;20644;-69
2021/05/17 11:33:17;;;;;;;3.45;1.63;;;13.00;99.90;;;;;;5037784;28;20041;-69
2021/05/17 11:35:58;;;;;;;4.03;1.50;;;13.20;99.90;;;;;;5041728;28;20029;-69
2021/05/17 11:38:24;;;;;;;3.55;2.22;;;13.40;99.90;;;;;;5037888;28;20093;-69
2021/05/17 11:40:50;;;;;;;3.97;1.92;;;13.50;99.90;;;;;;5044043;28;20040;-71
2021/05/17 11:43:16;;;;;;;3.80;1.98;;;13.70;99.90;;;;;;5047525;28;20059;-69
2021/05/17 11:45:43;;;;;;;8.02;2.10;;;14.00;99.90;;;;;;5049726;28;20032;-70
2021/05/17 11:48:09;;;;;;;2.92;1.67;;;14.40;99.90;;;;;;5048269;28;20037;-70
2021/05/17 11:50:35;;;;;;;1.80;1.45;;;14.40;99.90;;;;;;5050488;28;20108;-71
2021/05/17 11:53:03;;;;;;;2.45;1.38;;;14.50;99.90;;;;;;5050269;28;20101;-69
2021/05/17 11:55:29;;;;;;;3.97;2.38;;;14.60;99.90;;;;;;5036229;28;20150;-69
2021/05/17 11:57:56;;;;;;;2.40;1.58;;;14.70;99.90;;;;;;5046713;28;20486;-71
2021/05/17 12:00:25;;;;;;;2.60;1.60;;;14.80;99.90;;;;;;5049205;28;20040;-70
2021/05/17 12:02:53;;;;;;;4.35;1.65;;;14.90;99.90;;;;;;5045693;28;20040;-71
2021/05/17 12:05:20;;;;;;;4.32;1.88;;;15.20;99.90;;;;;;5047621;28;20045;-70
2021/05/17 12:07:51;;;;;;;2.00;1.40;;;15.40;99.90;;;;;;5044834;28;20090;-70
2021/05/17 12:10:18;;;;;;;2.72;1.50;;;15.40;99.90;;;;;;5046129;28;20032;-70
2021/05/17 12:12:44;;;;;;;2.08;1.25;;;15.60;99.90;;;;;;5043525;28;20029;-70
2021/05/17 12:15:15;;;;;;;3.13;1.60;;;15.90;99.90;;;;;;5044929;28;20036;-70
2021/05/17 12:17:41;;;;;;;3.85;1.70;;;16.00;99.90;;;;;;5044855;28;20124;-70
2021/05/17 12:20:12;;;;;;;2.10;1.33;;;16.10;99.90;;;;;;5043613;28;20116;-69
2021/05/17 12:22:44;;;;;;;1.85;1.40;;;16.20;99.90;;;;;;5047260;28;20096;-70
2021/05/17 12:25:23;;;;;;;6.53;2.25;;;16.20;99.90;;;;;;5043980;28;20041;-70
2021/05/17 12:27:51;;;;;;;8.15;3.13;;;16.10;99.90;;;;;;5045813;28;20056;-69
2021/05/17 12:30:25;;;;;;;6.30;3.30;;;15.70;99.90;;;;;;5044539;28;20041;-70
2021/05/17 12:32:54;;;;;;;9.48;4.38;;;15.10;99.90;;;;;;5043855;28;20060;-70
2021/05/17 12:35:28;;;;;;;12.27;5.32;;;14.60;99.90;;;;;;5046471;28;20033;-71
2021/05/17 12:38:21;;;;;;;8.88;4.65;;;14.40;99.90;;;;;;5051583;28;20093;-71
2021/05/17 12:40:49;;;;;;;8.18;5.15;;;14.20;99.90;;;;;;5044508;28;20037;-70
2021/05/17 12:43:35;;;;;;;10.85;5.35;;;14.10;99.90;;;;;;5044253;28;20549;-69
2021/05/17 12:46:02;;;;;;;9.75;5.15;;;14.00;99.90;;;;;;5047279;28;20032;-69
2021/05/17 12:48:40;;;;;;;7.82;4.60;;;14.10;99.90;;;;;;5039437;28;20021;-68
2021/05/17 12:51:11;;;;;;;6.05;3.90;;;14.20;99.90;;;;;;5044360;28;20028;-69
2021/05/17 12:53:37;;;;;;;9.20;3.40;;;14.40;99.90;;;;;;5042962;28;20032;-70
2021/05/17 12:56:03;;;;;;;7.40;2.88;;;14.50;99.90;;;;;;5043314;28;20108;-69
2021/05/17 12:58:40;;;;;;;7.78;2.72;;;14.60;99.90;;;;;;5042550;28;20025;-70
2021/05/17 13:01:13;;;;;;;5.95;2.70;;;14.70;99.90;;;;;;5041035;28;20029;-70
2021/05/17 13:03:46;;;;;;;7.25;3.20;;;14.70;99.90;;;;;;5037160;28;20094;-69
2021/05/17 13:06:21;;;;;;;8.77;3.03;;;14.80;99.90;;;;;;5043828;28;20490;-70
2021/05/17 13:08:49;;;;;;;8.07;2.63;;;14.90;99.90;;;;;;5045390;28;20044;-71
2021/05/17 13:11:24;;;;;;;6.07;2.35;;;15.10;99.90;;;;;;5046431;28;20041;-70
2021/05/17 13:14:00;;;;;;;6.68;2.38;;;15.20;99.90;;;;;;5041307;28;20041;-70